sensor_id;sensor_type;location;lat;lon;timestamp;pressure;altitude;pressure_sealevel;temperature;humidity
56272;BME280;42177;48.914;18.160;2023-10-19T00:00:06;978.8;;;10;69.6
56272;BME280;42177;48.914;18.160;2023-10-19T00:05:06;978.8;;;10;68.5
56272;BME280;42177;48.914;18.160;2023-10-19T00:10:06;978.8;;;10;68.5
56272;BME280;42177;48.914;18.160;2023-10-19T00:15:06;978.4;;;10.2;67.8
56272;BME280;42177;48.914;18.160;2023-10-19T00:20:06;978.4;;;10.2;67.8
56272;BME280;42177;48.914;18.160;2023-10-19T00:25:06;978.2;;;10.3;66.4
56272;BME280;42177;48.914;18.160;2023-10-19T00:30:06;978.2;;;10.3;66.4
56272;BME280;42177;48.914;18.160;2023-10-19T00:35:06;978;;;10.2;67.3
56272;BME280;42177;48.914;18.160;2023-10-19T00:40:06;978;;;10.2;67.3
56272;BME280;42177;48.914;18.160;2023-10-19T00:45:06;977.9;;;10.4;66.3
56272;BME280;42177;48.914;18.160;2023-10-19T00:50:06;977.9;;;10.4;66.3
56272;BME280;42177;48.914;18.160;2023-10-19T00:55:06;977.7;;;10.5;66.1
56272;BME280;42177;48.914;18.160;2023-10-19T01:00:06;977.7;;;10.5;66.1
56272;BME280;42177;48.914;18.160;2023-10-19T01:05:06;977.6;;;10.7;65.9
56272;BME280;42177;48.914;18.160;2023-10-19T01:10:06;977.6;;;10.7;65.9
56272;BME280;42177;48.914;18.160;2023-10-19T01:15:07;977.5;;;10.8;66.1
56272;BME280;42177;48.914;18.160;2023-10-19T01:20:07;977.5;;;10.8;66.1
56272;BME280;42177;48.914;18.160;2023-10-19T01:25:06;977.3;;;10.7;66.3
56272;BME280;42177;48.914;18.160;2023-10-19T01:30:06;977.3;;;10.7;66.3
56272;BME280;42177;48.914;18.160;2023-10-19T01:35:06;976.9;;;11;65.4
56272;BME280;42177;48.914;18.160;2023-10-19T01:40:06;976.9;;;11;65.4
56272;BME280;42177;48.914;18.160;2023-10-19T01:45:06;976.9;;;11.1;65.3
56272;BME280;42177;48.914;18.160;2023-10-19T01:50:06;976.9;;;11.1;65.3
56272;BME280;42177;48.914;18.160;2023-10-19T01:55:06;976.4;;;11.1;65.1
56272;BME280;42177;48.914;18.160;2023-10-19T02:00:06;976.4;;;11.1;65.1
56272;BME280;42177;48.914;18.160;2023-10-19T02:05:06;976.4;;;11;66.1
56272;BME280;42177;48.914;18.160;2023-10-19T02:10:06;976.4;;;11;66.1
56272;BME280;42177;48.914;18.160;2023-10-19T02:15:06;976.3;;;10.9;67.3
56272;BME280;42177;48.914;18.160;2023-10-19T02:20:06;976.3;;;10.9;67.3
56272;BME280;42177;48.914;18.160;2023-10-19T02:25:06;976.2;;;10.9;68.2
56272;BME280;42177;48.914;18.160;2023-10-19T02:30:06;976.2;;;10.9;68.2
56272;BME280;42177;48.914;18.160;2023-10-19T02:35:06;976.2;;;10.8;69.7
56272;BME280;42177;48.914;18.160;2023-10-19T02:40:06;976.2;;;10.8;69.7
56272;BME280;42177;48.914;18.160;2023-10-19T02:45:07;976.1;;;10.8;72.4
56272;BME280;42177;48.914;18.160;2023-10-19T02:50:06;976.1;;;10.8;72.4
56272;BME280;42177;48.914;18.160;2023-10-19T02:55:06;976;;;10.6;75.7
56272;BME280;42177;48.914;18.160;2023-10-19T03:00:06;976;;;10.6;75.7
56272;BME280;42177;48.914;18.160;2023-10-19T03:05:06;975.9;;;10.5;79.1
56272;BME280;42177;48.914;18.160;2023-10-19T03:10:06;975.9;;;10.5;79.1
56272;BME280;42177;48.914;18.160;2023-10-19T03:15:06;975.8;;;10.4;80.7
56272;BME280;42177;48.914;18.160;2023-10-19T03:20:06;975.8;;;10.4;80.7
56272;BME280;42177;48.914;18.160;2023-10-19T03:25:06;975.8;;;10.5;81.8
56272;BME280;42177;48.914;18.160;2023-10-19T03:30:06;975.8;;;10.5;81.8
56272;BME280;42177;48.914;18.160;2023-10-19T03:35:06;975.7;;;10.6;84
56272;BME280;42177;48.914;18.160;2023-10-19T03:40:06;975.7;;;10.6;84
56272;BME280;42177;48.914;18.160;2023-10-19T03:45:06;975.6;;;10.4;89.6
56272;BME280;42177;48.914;18.160;2023-10-19T03:50:06;975.6;;;10.4;89.6
56272;BME280;42177;48.914;18.160;2023-10-19T03:55:06;975.5;;;10.1;98.2
56272;BME280;42177;48.914;18.160;2023-10-19T04:00:06;975.5;;;10.1;98.2
56272;BME280;42177;48.914;18.160;2023-10-19T04:05:06;975.4;;;9.9;100
56272;BME280;42177;48.914;18.160;2023-10-19T04:10:06;975.4;;;9.9;100
56272;BME280;42177;48.914;18.160;2023-10-19T04:15:06;975.3;;;9.9;100
56272;BME280;42177;48.914;18.160;2023-10-19T04:20:06;975.3;;;9.9;100
56272;BME280;42177;48.914;18.160;2023-10-19T04:25:06;975;;;10.1;100
56272;BME280;42177;48.914;18.160;2023-10-19T04:30:06;975;;;10.1;100
56272;BME280;42177;48.914;18.160;2023-10-19T04:35:06;974.9;;;10;100
56272;BME280;42177;48.914;18.160;2023-10-19T04:40:06;974.9;;;10;100
56272;BME280;42177;48.914;18.160;2023-10-19T04:45:06;974.7;;;10;100
56272;BME280;42177;48.914;18.160;2023-10-19T04:50:06;974.7;;;10;100
56272;BME280;42177;48.914;18.160;2023-10-19T04:55:06;974.6;;;10.1;100
56272;BME280;42177;48.914;18.160;2023-10-19T05:00:06;974.6;;;10.1;100
56272;BME280;42177;48.914;18.160;2023-10-19T05:05:06;974.6;;;10;100
56272;BME280;42177;48.914;18.160;2023-10-19T05:10:06;974.6;;;10;100
56272;BME280;42177;48.914;18.160;2023-10-19T05:15:06;974.6;;;10.4;100
56272;BME280;42177;48.914;18.160;2023-10-19T05:20:07;974.6;;;10.4;100
56272;BME280;42177;48.914;18.160;2023-10-19T05:25:06;974.5;;;10.5;100
56272;BME280;42177;48.914;18.160;2023-10-19T05:30:06;974.5;;;10.5;100
56272;BME280;42177;48.914;18.160;2023-10-19T05:35:06;974.4;;;10.4;100
56272;BME280;42177;48.914;18.160;2023-10-19T05:40:06;974.4;;;10.4;100
56272;BME280;42177;48.914;18.160;2023-10-19T05:45:06;974.4;;;10.6;100
56272;BME280;42177;48.914;18.160;2023-10-19T05:50:06;974.4;;;10.6;100
56272;BME280;42177;48.914;18.160;2023-10-19T05:55:06;974.3;;;10.7;100
56272;BME280;42177;48.914;18.160;2023-10-19T06:00:07;974.3;;;10.7;100
56272;BME280;42177;48.914;18.160;2023-10-19T06:05:06;974.4;;;10.9;100
56272;BME280;42177;48.914;18.160;2023-10-19T06:10:06;974.4;;;10.9;100
56272;BME280;42177;48.914;18.160;2023-10-19T06:15:06;974.4;;;11;100
56272;BME280;42177;48.914;18.160;2023-10-19T06:20:07;974.4;;;11;100
56272;BME280;42177;48.914;18.160;2023-10-19T06:25:06;974.2;;;11;100
56272;BME280;42177;48.914;18.160;2023-10-19T06:30:06;974.2;;;11;100
56272;BME280;42177;48.914;18.160;2023-10-19T06:35:06;974.3;;;11.4;100
56272;BME280;42177;48.914;18.160;2023-10-19T06:40:06;974.3;;;11.4;100
56272;BME280;42177;48.914;18.160;2023-10-19T06:45:06;974.1;;;11.2;100
56272;BME280;42177;48.914;18.160;2023-10-19T06:50:07;974.1;;;11.2;100
56272;BME280;42177;48.914;18.160;2023-10-19T06:55:07;974.2;;;11.2;100
56272;BME280;42177;48.914;18.160;2023-10-19T07:00:06;974.2;;;11.2;100
56272;BME280;42177;48.914;18.160;2023-10-19T07:05:06;973.9;;;11.5;100
56272;BME280;42177;48.914;18.160;2023-10-19T07:10:06;973.9;;;11.5;100
56272;BME280;42177;48.914;18.160;2023-10-19T07:15:06;973.7;;;11.6;100
56272;BME280;42177;48.914;18.160;2023-10-19T07:20:06;973.7;;;11.6;100
56272;BME280;42177;48.914;18.160;2023-10-19T07:25:06;973.6;;;11.7;100
56272;BME280;42177;48.914;18.160;2023-10-19T07:30:06;973.6;;;11.7;100
56272;BME280;42177;48.914;18.160;2023-10-19T07:35:06;973.4;;;11.9;100
56272;BME280;42177;48.914;18.160;2023-10-19T07:40:07;973.4;;;11.9;100
56272;BME280;42177;48.914;18.160;2023-10-19T07:45:06;973.3;;;12;100
56272;BME280;42177;48.914;18.160;2023-10-19T07:50:06;973.3;;;12;100
56272;BME280;42177;48.914;18.160;2023-10-19T07:55:06;973.1;;;12.2;100
56272;BME280;42177;48.914;18.160;2023-10-19T08:00:07;973.1;;;12.2;100
56272;BME280;42177;48.914;18.160;2023-10-19T08:05:06;973.1;;;12.4;100
56272;BME280;42177;48.914;18.160;2023-10-19T08:10:06;973.1;;;12.4;100
56272;BME280;42177;48.914;18.160;2023-10-19T08:15:06;972.9;;;12.4;100
56272;BME280;42177;48.914;18.160;2023-10-19T08:20:06;972.9;;;12.4;100
56272;BME280;42177;48.914;18.160;2023-10-19T08:25:06;973.1;;;12.6;100
56272;BME280;42177;48.914;18.160;2023-10-19T08:30:06;973.1;;;12.6;100
56272;BME280;42177;48.914;18.160;2023-10-19T08:35:06;973.1;;;12.6;100
56272;BME280;42177;48.914;18.160;2023-10-19T08:40:06;973.1;;;12.6;100
56272;BME280;42177;48.914;18.160;2023-10-19T08:45:06;973.1;;;12.6;100
56272;BME280;42177;48.914;18.160;2023-10-19T08:50:06;973.1;;;12.6;100
56272;BME280;42177;48.914;18.160;2023-10-19T08:55:06;972.9;;;12.9;99.3
56272;BME280;42177;48.914;18.160;2023-10-19T09:00:07;972.9;;;12.9;99.3
56272;BME280;42177;48.914;18.160;2023-10-19T09:05:06;973.2;;;12.8;99.2
56272;BME280;42177;48.914;18.160;2023-10-19T09:10:06;973.2;;;12.8;99.2
56272;BME280;42177;48.914;18.160;2023-10-19T09:15:08;973.1;;;12.8;99.8
56272;BME280;42177;48.914;18.160;2023-10-19T09:20:06;973.1;;;12.8;99.8
56272;BME280;42177;48.914;18.160;2023-10-19T09:25:06;973;;;12.8;99.3
56272;BME280;42177;48.914;18.160;2023-10-19T09:30:06;973;;;12.8;99.3
56272;BME280;42177;48.914;18.160;2023-10-19T09:35:06;972.9;;;12.8;99.2
56272;BME280;42177;48.914;18.160;2023-10-19T09:40:06;972.9;;;12.8;99.2
56272;BME280;42177;48.914;18.160;2023-10-19T09:45:06;972.7;;;12.7;99.7
56272;BME280;42177;48.914;18.160;2023-10-19T09:50:06;972.7;;;12.7;99.7
56272;BME280;42177;48.914;18.160;2023-10-19T09:55:06;972.5;;;13;99.6
56272;BME280;42177;48.914;18.160;2023-10-19T10:00:06;972.5;;;13;99.6
56272;BME280;42177;48.914;18.160;2023-10-19T10:05:25;972.4;;;13.4;98.8
56272;BME280;42177;48.914;18.160;2023-10-19T10:10:06;972.4;;;13.4;98.8
56272;BME280;42177;48.914;18.160;2023-10-19T10:15:06;972.3;;;13.3;98.7
56272;BME280;42177;48.914;18.160;2023-10-19T10:20:38;972.3;;;13.3;98.7
56272;BME280;42177;48.914;18.160;2023-10-19T10:25:06;972.1;;;13.3;100
56272;BME280;42177;48.914;18.160;2023-10-19T10:30:06;972.1;;;13.3;100
56272;BME280;42177;48.914;18.160;2023-10-19T10:35:06;972.4;;;13.1;100
56272;BME280;42177;48.914;18.160;2023-10-19T10:40:06;972.4;;;13.1;100
56272;BME280;42177;48.914;18.160;2023-10-19T10:45:06;972.2;;;13.2;100
56272;BME280;42177;48.914;18.160;2023-10-19T10:50:06;972.2;;;13.2;100
56272;BME280;42177;48.914;18.160;2023-10-19T10:55:06;971.9;;;13.4;100
56272;BME280;42177;48.914;18.160;2023-10-19T11:00:06;971.9;;;13.4;100
56272;BME280;42177;48.914;18.160;2023-10-19T11:05:06;971.8;;;13.4;100
56272;BME280;42177;48.914;18.160;2023-10-19T11:10:06;971.8;;;13.4;100
56272;BME280;42177;48.914;18.160;2023-10-19T11:15:06;972;;;13.7;99.5
56272;BME280;42177;48.914;18.160;2023-10-19T11:20:06;972;;;13.7;99.5
56272;BME280;42177;48.914;18.160;2023-10-19T11:25:24;971.5;;;13.5;100
56272;BME280;42177;48.914;18.160;2023-10-19T11:30:06;971.5;;;13.5;100
56272;BME280;42177;48.914;18.160;2023-10-19T11:35:06;971.5;;;13.4;100
56272;BME280;42177;48.914;18.160;2023-10-19T11:40:06;971.5;;;13.4;100
56272;BME280;42177;48.914;18.160;2023-10-19T11:45:06;971.5;;;13.4;100
56272;BME280;42177;48.914;18.160;2023-10-19T11:50:06;971.5;;;13.4;100
56272;BME280;42177;48.914;18.160;2023-10-19T11:55:06;971.5;;;13.4;100
56272;BME280;42177;48.914;18.160;2023-10-19T12:00:06;971.5;;;13.4;100
56272;BME280;42177;48.914;18.160;2023-10-19T12:05:07;971.3;;;13.5;100
56272;BME280;42177;48.914;18.160;2023-10-19T12:10:07;971.3;;;13.5;100
56272;BME280;42177;48.914;18.160;2023-10-19T12:15:07;971.2;;;13.5;100
56272;BME280;42177;48.914;18.160;2023-10-19T12:20:06;971.2;;;13.5;100
56272;BME280;42177;48.914;18.160;2023-10-19T12:25:06;971.2;;;13.5;100
56272;BME280;42177;48.914;18.160;2023-10-19T12:30:06;971.2;;;13.5;100
56272;BME280;42177;48.914;18.160;2023-10-19T12:35:06;971;;;13.6;100
56272;BME280;42177;48.914;18.160;2023-10-19T12:40:06;971;;;13.6;100
56272;BME280;42177;48.914;18.160;2023-10-19T12:45:06;970.9;;;13.8;99.4
56272;BME280;42177;48.914;18.160;2023-10-19T12:50:06;970.9;;;13.8;99.4
56272;BME280;42177;48.914;18.160;2023-10-19T12:55:06;970.9;;;13.9;98.8
56272;BME280;42177;48.914;18.160;2023-10-19T13:00:06;970.9;;;13.9;98.8
56272;BME280;42177;48.914;18.160;2023-10-19T13:05:06;970.9;;;13.8;99.2
56272;BME280;42177;48.914;18.160;2023-10-19T13:10:06;970.9;;;13.8;99.2
56272;BME280;42177;48.914;18.160;2023-10-19T13:15:07;970.8;;;13.8;98.4
56272;BME280;42177;48.914;18.160;2023-10-19T13:20:06;970.8;;;13.8;98.4
56272;BME280;42177;48.914;18.160;2023-10-19T13:25:06;970.5;;;13.8;98.7
56272;BME280;42177;48.914;18.160;2023-10-19T13:30:06;970.5;;;13.8;98.7
56272;BME280;42177;48.914;18.160;2023-10-19T13:35:06;970.2;;;13.9;98.3
56272;BME280;42177;48.914;18.160;2023-10-19T13:40:06;970.2;;;13.9;98.3
56272;BME280;42177;48.914;18.160;2023-10-19T13:45:06;970.1;;;14.1;98.2
56272;BME280;42177;48.914;18.160;2023-10-19T13:50:06;970.1;;;14.1;98.2
56272;BME280;42177;48.914;18.160;2023-10-19T13:55:06;970;;;14.1;98.5
56272;BME280;42177;48.914;18.160;2023-10-19T14:00:06;970;;;14.1;98.5
56272;BME280;42177;48.914;18.160;2023-10-19T14:05:06;970;;;14.1;98.5
56272;BME280;42177;48.914;18.160;2023-10-19T14:10:06;970;;;14.1;98.5
56272;BME280;42177;48.914;18.160;2023-10-19T14:15:06;969.8;;;14.1;98.3
56272;BME280;42177;48.914;18.160;2023-10-19T14:20:06;969.8;;;14.1;98.3
56272;BME280;42177;48.914;18.160;2023-10-19T14:25:06;969.8;;;14.1;98.3
56272;BME280;42177;48.914;18.160;2023-10-19T14:30:06;969.8;;;14.1;98.3
56272;BME280;42177;48.914;18.160;2023-10-19T14:35:06;969.7;;;14.1;98
56272;BME280;42177;48.914;18.160;2023-10-19T14:40:07;969.7;;;14.1;98
56272;BME280;42177;48.914;18.160;2023-10-19T14:45:07;969.6;;;14;98.4
56272;BME280;42177;48.914;18.160;2023-10-19T14:50:07;969.6;;;14;98.4
56272;BME280;42177;48.914;18.160;2023-10-19T14:55:06;969.5;;;14;98.4
56272;BME280;42177;48.914;18.160;2023-10-19T15:00:07;969.5;;;14;98.4
56272;BME280;42177;48.914;18.160;2023-10-19T15:05:06;969.6;;;14.1;98.8
56272;BME280;42177;48.914;18.160;2023-10-19T15:10:06;969.6;;;14.1;98.8
56272;BME280;42177;48.914;18.160;2023-10-19T15:15:06;969.4;;;14.2;99
56272;BME280;42177;48.914;18.160;2023-10-19T15:20:07;969.4;;;14.2;99
56272;BME280;42177;48.914;18.160;2023-10-19T15:25:06;969.3;;;14.2;98.8
56272;BME280;42177;48.914;18.160;2023-10-19T15:30:07;969.3;;;14.2;98.8
56272;BME280;42177;48.914;18.160;2023-10-19T15:35:07;969.4;;;14.2;98.7
56272;BME280;42177;48.914;18.160;2023-10-19T15:40:06;969.4;;;14.2;98.7
56272;BME280;42177;48.914;18.160;2023-10-19T15:45:06;969.3;;;14.3;98.8
56272;BME280;42177;48.914;18.160;2023-10-19T15:50:06;969.3;;;14.3;98.8
56272;BME280;42177;48.914;18.160;2023-10-19T15:55:06;969.5;;;14.4;98.3
56272;BME280;42177;48.914;18.160;2023-10-19T16:00:07;969.5;;;14.4;98.3
56272;BME280;42177;48.914;18.160;2023-10-19T16:05:06;969.5;;;14.4;99
56272;BME280;42177;48.914;18.160;2023-10-19T16:10:06;969.5;;;14.4;99
56272;BME280;42177;48.914;18.160;2023-10-19T16:15:06;969.4;;;14.5;99
56272;BME280;42177;48.914;18.160;2023-10-19T16:20:06;969.4;;;14.5;99
56272;BME280;42177;48.914;18.160;2023-10-19T16:25:06;969.4;;;14.5;98.9
56272;BME280;42177;48.914;18.160;2023-10-19T16:30:06;969.4;;;14.5;98.9
56272;BME280;42177;48.914;18.160;2023-10-19T16:35:06;969.3;;;14.6;98.5
56272;BME280;42177;48.914;18.160;2023-10-19T16:40:06;969.3;;;14.6;98.5
56272;BME280;42177;48.914;18.160;2023-10-19T16:45:06;969.3;;;14.6;98.9
56272;BME280;42177;48.914;18.160;2023-10-19T16:50:06;969.3;;;14.6;98.9
56272;BME280;42177;48.914;18.160;2023-10-19T16:55:07;969.1;;;14.6;99.1
56272;BME280;42177;48.914;18.160;2023-10-19T17:00:06;969.1;;;14.6;99.1
56272;BME280;42177;48.914;18.160;2023-10-19T17:05:06;969;;;14.6;99.6
56272;BME280;42177;48.914;18.160;2023-10-19T17:10:06;969;;;14.6;99.6
56272;BME280;42177;48.914;18.160;2023-10-19T17:15:06;968.8;;;14.6;99.7
56272;BME280;42177;48.914;18.160;2023-10-19T17:20:07;968.8;;;14.6;99.7
56272;BME280;42177;48.914;18.160;2023-10-19T17:25:06;969.1;;;14.7;99.3
56272;BME280;42177;48.914;18.160;2023-10-19T17:30:06;969.1;;;14.7;99.3
56272;BME280;42177;48.914;18.160;2023-10-19T17:35:06;968.9;;;14.7;99.4
56272;BME280;42177;48.914;18.160;2023-10-19T17:40:06;968.9;;;14.7;99.4
56272;BME280;42177;48.914;18.160;2023-10-19T17:45:06;968.9;;;14.7;99.7
56272;BME280;42177;48.914;18.160;2023-10-19T17:50:06;968.9;;;14.7;99.7
56272;BME280;42177;48.914;18.160;2023-10-19T17:55:06;968.7;;;14.7;100
56272;BME280;42177;48.914;18.160;2023-10-19T18:00:06;968.7;;;14.7;100
56272;BME280;42177;48.914;18.160;2023-10-19T18:05:06;968.5;;;14.4;100
56272;BME280;42177;48.914;18.160;2023-10-19T18:10:07;968.5;;;14.4;100
56272;BME280;42177;48.914;18.160;2023-10-19T18:15:07;968.4;;;14.4;100
56272;BME280;42177;48.914;18.160;2023-10-19T18:20:06;968.4;;;14.4;100
56272;BME280;42177;48.914;18.160;2023-10-19T18:25:06;968.4;;;14.4;100
56272;BME280;42177;48.914;18.160;2023-10-19T18:30:06;968.4;;;14.4;100
56272;BME280;42177;48.914;18.160;2023-10-19T18:35:06;968.2;;;14.2;100
56272;BME280;42177;48.914;18.160;2023-10-19T18:40:06;968.2;;;14.2;100
56272;BME280;42177;48.914;18.160;2023-10-19T18:45:06;968.4;;;14.2;100
56272;BME280;42177;48.914;18.160;2023-10-19T18:50:06;968.4;;;14.2;100
56272;BME280;42177;48.914;18.160;2023-10-19T18:55:06;968.2;;;14.3;100
56272;BME280;42177;48.914;18.160;2023-10-19T19:00:06;968.2;;;14.3;100
56272;BME280;42177;48.914;18.160;2023-10-19T19:05:06;968;;;14.3;100
56272;BME280;42177;48.914;18.160;2023-10-19T19:10:06;968;;;14.3;100
56272;BME280;42177;48.914;18.160;2023-10-19T19:15:06;968;;;14.5;100
56272;BME280;42177;48.914;18.160;2023-10-19T19:20:06;968;;;14.5;100
56272;BME280;42177;48.914;18.160;2023-10-19T19:25:06;967.8;;;14.7;100
56272;BME280;42177;48.914;18.160;2023-10-19T19:30:06;967.8;;;14.7;100
56272;BME280;42177;48.914;18.160;2023-10-19T19:35:06;968;;;14.8;100
56272;BME280;42177;48.914;18.160;2023-10-19T19:40:07;968;;;14.8;100
56272;BME280;42177;48.914;18.160;2023-10-19T19:45:06;967.9;;;14.9;100
56272;BME280;42177;48.914;18.160;2023-10-19T19:50:06;967.9;;;14.9;100
56272;BME280;42177;48.914;18.160;2023-10-19T19:55:07;967.9;;;15;100
56272;BME280;42177;48.914;18.160;2023-10-19T20:00:07;967.9;;;15;100
56272;BME280;42177;48.914;18.160;2023-10-19T20:05:06;967.7;;;14.9;100
56272;BME280;42177;48.914;18.160;2023-10-19T20:10:07;967.7;;;14.9;100
56272;BME280;42177;48.914;18.160;2023-10-19T20:15:07;967.6;;;15;100
56272;BME280;42177;48.914;18.160;2023-10-19T20:20:07;967.6;;;15;100
56272;BME280;42177;48.914;18.160;2023-10-19T20:25:06;967.6;;;15.1;100
56272;BME280;42177;48.914;18.160;2023-10-19T20:30:06;967.6;;;15.1;100
56272;BME280;42177;48.914;18.160;2023-10-19T20:35:07;967.4;;;15.2;100
56272;BME280;42177;48.914;18.160;2023-10-19T20:40:06;967.4;;;15.2;100
56272;BME280;42177;48.914;18.160;2023-10-19T20:45:06;967.3;;;15;100
56272;BME280;42177;48.914;18.160;2023-10-19T20:50:06;967.3;;;15;100
56272;BME280;42177;48.914;18.160;2023-10-19T20:55:06;967.4;;;14.9;100
56272;BME280;42177;48.914;18.160;2023-10-19T21:00:06;967.4;;;14.9;100
56272;BME280;42177;48.914;18.160;2023-10-19T21:05:06;967.2;;;14.9;100
56272;BME280;42177;48.914;18.160;2023-10-19T21:10:06;967.2;;;14.9;100
56272;BME280;42177;48.914;18.160;2023-10-19T21:15:07;966.9;;;14.9;100
56272;BME280;42177;48.914;18.160;2023-10-19T21:20:06;966.9;;;14.9;100
56272;BME280;42177;48.914;18.160;2023-10-19T21:25:06;966.6;;;15.1;100
56272;BME280;42177;48.914;18.160;2023-10-19T21:30:06;966.6;;;15.1;100
56272;BME280;42177;48.914;18.160;2023-10-19T21:35:07;966.6;;;15.1;100
56272;BME280;42177;48.914;18.160;2023-10-19T21:40:07;966.6;;;15.1;100
56272;BME280;42177;48.914;18.160;2023-10-19T21:45:07;966.2;;;15.1;100
56272;BME280;42177;48.914;18.160;2023-10-19T21:50:06;966.2;;;15.1;100
56272;BME280;42177;48.914;18.160;2023-10-19T21:55:07;966.3;;;15.2;100
56272;BME280;42177;48.914;18.160;2023-10-19T22:00:07;966.3;;;15.2;100
56272;BME280;42177;48.914;18.160;2023-10-19T22:05:06;966.3;;;15.3;100
56272;BME280;42177;48.914;18.160;2023-10-19T22:10:06;966.3;;;15.3;100
56272;BME280;42177;48.914;18.160;2023-10-19T22:15:07;966.2;;;15.3;100
56272;BME280;42177;48.914;18.160;2023-10-19T22:20:06;966.2;;;15.3;100
56272;BME280;42177;48.914;18.160;2023-10-19T22:25:06;966.2;;;15.5;100
56272;BME280;42177;48.914;18.160;2023-10-19T22:30:06;966.2;;;15.5;100
56272;BME280;42177;48.914;18.160;2023-10-19T22:35:06;966;;;15.4;100
56272;BME280;42177;48.914;18.160;2023-10-19T22:40:07;966;;;15.4;100
56272;BME280;42177;48.914;18.160;2023-10-19T22:45:06;966.1;;;15.4;100
56272;BME280;42177;48.914;18.160;2023-10-19T22:50:06;966.1;;;15.4;100
56272;BME280;42177;48.914;18.160;2023-10-19T22:55:07;965.9;;;15.4;100
56272;BME280;42177;48.914;18.160;2023-10-19T23:00:07;965.9;;;15.4;100
56272;BME280;42177;48.914;18.160;2023-10-19T23:05:06;965.9;;;15.5;100
56272;BME280;42177;48.914;18.160;2023-10-19T23:10:06;965.9;;;15.5;100
56272;BME280;42177;48.914;18.160;2023-10-19T23:15:07;965.9;;;15.6;100
56272;BME280;42177;48.914;18.160;2023-10-19T23:20:06;965.9;;;15.6;100
56272;BME280;42177;48.914;18.160;2023-10-19T23:25:06;965.9;;;15.6;100
56272;BME280;42177;48.914;18.160;2023-10-19T23:30:07;965.9;;;15.6;100
56272;BME280;42177;48.914;18.160;2023-10-19T23:35:07;965.9;;;15.5;100
56272;BME280;42177;48.914;18.160;2023-10-19T23:40:06;965.9;;;15.5;100
56272;BME280;42177;48.914;18.160;2023-10-19T23:45:06;965.7;;;15.6;100
56272;BME280;42177;48.914;18.160;2023-10-19T23:50:07;965.7;;;15.6;100
56272;BME280;42177;48.914;18.160;2023-10-19T23:55:06;965.5;;;15.7;100
